Time;durP1;ratioP1;P1;durP2;ratioP2;P2;SDS_P1;SDS_P2;PMS_P1;PMS_P2;Temp;Humidity;BMP_temperature;BMP_pressure;BME280_temperature;BME280_humidity;BME280_pressure;Samples;Min_cycle;Max_cycle;Signal;HPM_P1;HPM_P2
2023/05/12 00:01:22;;;;;;;5.80;4.70;;;;;;;15.70;56.95;102365.65;107071;1268;25494;-51
2023/05/12 00:03:52;;;;;;;5.10;4.50;;;;;;;15.70;57.11;102364.23;107164;1267;25439;-51
2023/05/12 00:06:19;;;;;;;4.80;4.10;;;;;;;15.73;57.35;102362.27;107091;1266;25347;-51
2023/05/12 00:08:47;;;;;;;4.00;3.60;;;;;;;15.72;57.74;102361.77;106791;1273;25465;-51
2023/05/12 00:11:14;;;;;;;4.80;3.60;;;;;;;15.70;58.08;102365.11;106953;1269;22652;-51
2023/05/12 00:13:40;;;;;;;4.00;3.60;;;;;;;15.69;57.95;102365.66;106895;1269;25515;-51
2023/05/12 00:16:08;;;;;;;3.70;3.00;;;;;;;15.69;57.54;102363.39;106732;1274;25409;-51
2023/05/12 00:18:36;;;;;;;4.10;3.10;;;;;;;15.71;57.59;102364.05;106818;1270;24336;-51
2023/05/12 00:21:03;;;;;;;3.80;3.00;;;;;;;15.74;57.60;102359.11;106876;1270;23860;-51
2023/05/12 00:23:31;;;;;;;3.00;2.60;;;;;;;15.76;57.12;102355.57;107102;1266;25877;-51
2023/05/12 00:25:58;;;;;;;2.50;2.30;;;;;;;15.77;56.74;102354.66;107194;1267;23980;-51
2023/05/12 00:28:25;;;;;;;2.30;2.10;;;;;;;15.79;55.63;102355.70;107090;1266;25408;-51
2023/05/12 00:30:52;;;;;;;3.40;2.60;;;;;;;15.80;54.89;102353.56;107038;1266;26502;-51
2023/05/12 00:33:19;;;;;;;3.20;2.50;;;;;;;15.83;54.75;102358.23;107060;1266;25424;-51
2023/05/12 00:35:46;;;;;;;3.00;2.60;;;;;;;15.84;54.21;102355.59;107152;1266;25475;-51
2023/05/12 00:38:14;;;;;;;5.80;3.10;;;;;;;15.86;53.84;102355.55;107047;1266;25429;-51
2023/05/12 00:40:41;;;;;;;3.20;2.90;;;;;;;15.87;53.20;102355.02;106618;1275;25402;-51
2023/05/12 00:43:08;;;;;;;3.10;2.50;;;;;;;15.87;52.80;102351.69;107129;1266;25341;-51
2023/05/12 00:45:35;;;;;;;3.40;2.90;;;;;;;15.86;52.27;102352.41;107071;1266;25408;-51
2023/05/12 00:48:03;;;;;;;3.40;2.70;;;;;;;15.86;51.78;102349.79;106919;1267;25363;-51
2023/05/12 00:50:31;;;;;;;2.50;2.30;;;;;;;15.85;51.07;102351.36;107027;1267;25458;-51
2023/05/12 00:52:59;;;;;;;2.60;2.30;;;;;;;15.85;50.13;102351.02;106825;1267;25446;-51
2023/05/12 00:55:28;;;;;;;3.40;2.10;;;;;;;15.85;49.54;102355.21;107189;1266;26508;-51
2023/05/12 00:57:55;;;;;;;2.90;2.30;;;;;;;15.84;48.55;102351.21;107103;1251;25322;-52
2023/05/12 01:00:23;;;;;;;2.10;1.90;;;;;;;15.83;47.44;102354.55;107028;1266;24211;-50
2023/05/12 01:02:50;;;;;;;2.20;2.00;;;;;;;15.82;47.11;102354.23;107159;1266;25407;-51
2023/05/12 01:05:18;;;;;;;4.40;2.20;;;;;;;15.82;47.26;102355.64;106824;1270;25362;-51
2023/05/12 01:07:46;;;;;;;4.60;2.40;;;;;;;15.81;47.33;102357.57;107105;1266;25879;-51
2023/05/12 01:10:18;;;;;;;2.50;2.20;;;;;;;15.79;46.99;102357.07;107055;1268;25334;-51
2023/05/12 01:12:47;;;;;;;2.10;1.90;;;;;;;15.78;47.45;102357.98;106840;1274;22631;-51
2023/05/12 01:15:14;;;;;;;2.50;2.30;;;;;;;15.76;47.68;102360.63;106846;1273;25399;-50
2023/05/12 01:17:46;;;;;;;2.50;2.10;;;;;;;15.74;47.08;102360.66;107119;1266;25341;-51
2023/05/12 01:20:14;;;;;;;2.50;2.30;;;;;;;15.72;46.86;102357.40;107195;1267;25494;-51
2023/05/12 01:22:42;;;;;;;3.20;2.50;;;;;;;15.70;46.14;102353.41;106232;1272;1003234;-50
2023/05/12 01:25:13;;;;;;;2.50;2.30;;;;;;;15.69;46.28;102353.08;107102;1269;25359;-51
2023/05/12 01:27:40;;;;;;;2.30;2.10;;;;;;;15.68;46.79;102354.14;107099;1267;22531;-51
2023/05/12 01:30:09;;;;;;;3.80;2.20;;;;;;;15.67;47.30;102358.35;107026;1267;22524;-51
2023/05/12 01:32:37;;;;;;;2.30;2.10;;;;;;;15.66;47.59;102356.95;107168;1270;22657;-51
2023/05/12 01:35:05;;;;;;;6.20;3.50;;;;;;;15.64;48.08;102362.23;107165;1270;22530;-50
2023/05/12 01:37:34;;;;;;;3.30;2.40;;;;;;;15.63;48.71;102359.29;107185;1266;24371;-51
2023/05/12 01:40:04;;;;;;;4.50;2.40;;;;;;;15.60;49.01;102361.27;107074;1267;25359;-51
2023/05/12 01:42:31;;;;;;;3.70;2.60;;;;;;;15.57;48.92;102362.20;106905;1267;25236;-51
2023/05/12 01:48:23;;;;;;;3.40;2.60;;;;;;;15.53;49.58;102361.21;103678;1305;544942;-50
2023/05/12 01:50:50;;;;;;;4.00;3.10;;;;;;;15.48;49.43;102363.92;105587;1276;1003075;-50
2023/05/12 01:53:19;;;;;;;8.70;3.70;;;;;;;15.46;49.49;102363.95;106487;1276;22523;-50
2023/05/12 01:55:46;;;;;;;3.30;3.00;;;;;;;15.44;49.88;102361.70;106344;1275;23896;-50
2023/05/12 01:58:14;;;;;;;6.00;3.50;;;;;;;15.43;50.00;102362.77;106278;1276;24336;-50
2023/05/12 02:00:41;;;;;;;5.60;2.80;;;;;;;15.43;50.48;102360.32;105579;1282;1003480;-50
2023/05/12 02:03:11;;;;;;;3.10;2.50;;;;;;;15.43;50.58;102359.45;106277;1273;224697;-50
2023/05/12 02:05:38;;;;;;;3.30;2.60;;;;;;;15.43;50.62;102358.23;106565;1276;22523;-50
2023/05/12 02:08:06;;;;;;;3.90;3.10;;;;;;;15.42;50.66;102359.62;106713;1275;22524;-50
2023/05/12 02:10:34;;;;;;;4.00;2.70;;;;;;;15.42;50.98;102357.88;106680;1273;24394;-50
2023/05/12 02:13:01;;;;;;;3.30;3.00;;;;;;;15.40;51.16;102358.06;106407;1279;25367;-49
2023/05/12 02:15:29;;;;;;;6.30;3.00;;;;;;;15.38;51.05;102354.96;106397;1277;24345;-50
2023/05/12 02:17:57;;;;;;;5.00;3.50;;;;;;;15.35;50.82;102354.66;106617;1272;24278;-50
2023/05/12 02:20:26;;;;;;;3.60;3.20;;;;;;;15.33;50.51;102357.15;106577;1273;24413;-50
2023/05/12 02:22:53;;;;;;;3.30;2.90;;;;;;;15.31;50.77;102354.74;106736;1272;22585;-50
2023/05/12 02:25:20;;;;;;;5.60;3.10;;;;;;;15.29;51.06;102356.85;106624;1272;22584;-52
2023/05/12 02:27:47;;;;;;;3.40;3.00;;;;;;;15.29;51.29;102357.04;106676;1272;22527;-52
2023/05/12 02:30:15;;;;;;;5.70;2.90;;;;;;;15.28;51.27;102355.65;106639;1272;24246;-52
2023/05/12 02:32:42;;;;;;;4.10;3.30;;;;;;;15.28;51.58;102354.09;106558;1272;25360;-52
2023/05/12 02:35:10;;;;;;;3.10;2.80;;;;;;;15.26;51.36;102349.38;106374;1279;24508;-51
2023/05/12 02:37:37;;;;;;;3.20;2.90;;;;;;;15.24;50.92;102352.91;106694;1278;24272;-51
2023/05/12 02:40:06;;;;;;;4.40;2.70;;;;;;;15.22;50.96;102352.94;106766;1273;25409;-52
2023/05/12 02:42:35;;;;;;;2.90;2.60;;;;;;;15.20;50.50;102350.52;106830;1272;22637;-52
2023/05/12 02:45:02;;;;;;;3.00;2.80;;;;;;;15.18;50.51;102348.63;106755;1276;22531;-52
2023/05/12 02:47:31;;;;;;;3.20;2.80;;;;;;;15.18;50.63;102353.36;106626;1275;25356;-52
2023/05/12 02:49:59;;;;;;;3.60;3.30;;;;;;;15.17;50.68;102357.74;106771;1272;22534;-52
2023/05/12 02:52:26;;;;;;;4.80;2.90;;;;;;;15.14;50.74;102356.03;106778;1273;22994;-52
2023/05/12 02:54:54;;;;;;;3.30;3.00;;;;;;;15.13;50.65;102359.90;106670;1272;24272;-52
2023/05/12 02:57:22;;;;;;;4.80;3.10;;;;;;;15.12;50.79;102358.52;106735;1257;22537;-52
2023/05/12 02:59:49;;;;;;;6.40;2.80;;;;;;;15.10;51.07;102359.95;106663;1274;22534;-51
2023/05/12 03:02:16;;;;;;;3.60;3.20;;;;;;;15.08;51.33;102357.18;106444;1271;22532;-51
2023/05/12 03:04:43;;;;;;;3.70;3.20;;;;;;;15.07;51.50;102358.59;106008;1273;1003443;-52
2023/05/12 03:07:10;;;;;;;4.20;3.80;;;;;;;15.06;51.48;102362.80;106544;1275;22527;-52
2023/05/12 03:09:38;;;;;;;4.40;3.60;;;;;;;15.06;51.43;102361.76;106702;1273;22562;-52
2023/05/12 03:12:05;;;;;;;4.70;3.70;;;;;;;15.07;51.51;102359.99;106504;1275;22534;-52
2023/05/12 03:14:33;;;;;;;5.10;3.70;;;;;;;15.08;51.71;102361.73;106400;1276;22977;-49
2023/05/12 03:17:00;;;;;;;5.50;4.50;;;;;;;15.08;51.99;102362.60;106398;1277;22527;-52
2023/05/12 03:19:27;;;;;;;5.80;4.60;;;;;;;15.09;52.18;102363.47;106644;1272;22530;-52
2023/05/12 03:21:54;;;;;;;6.50;4.60;;;;;;;15.09;51.99;102364.34;106633;1274;22576;-51
2023/05/12 03:24:21;;;;;;;6.30;4.50;;;;;;;15.08;52.12;102366.27;106606;1273;25565;-52
2023/05/12 03:26:48;;;;;;;5.10;4.30;;;;;;;15.07;51.84;102367.15;106731;1273;24390;-52
2023/05/12 03:29:15;;;;;;;6.70;4.80;;;;;;;15.07;51.58;102367.34;106751;1273;24403;-52
2023/05/12 03:31:42;;;;;;;5.90;4.30;;;;;;;15.09;51.39;102370.09;106531;1272;25315;-52
2023/05/12 03:34:10;;;;;;;5.20;4.30;;;;;;;15.14;51.33;102376.85;106679;1273;24399;-52
2023/05/12 03:36:37;;;;;;;6.60;4.20;;;;;;;15.21;51.24;102373.59;106669;1273;22676;-52
2023/05/12 03:39:04;;;;;;;9.50;4.90;;;;;;;15.32;51.02;102372.19;106593;1276;24208;-52
2023/05/12 03:41:31;;;;;;;4.80;4.20;;;;;;;15.43;50.88;102377.80;106726;1273;25684;-52
2023/05/12 03:43:59;;;;;;;5.30;4.30;;;;;;;15.48;50.88;102376.70;106476;1275;22528;-52
2023/05/12 03:46:26;;;;;;;4.60;3.80;;;;;;;15.51;51.01;102380.48;106573;1275;22533;-52
2023/05/12 03:48:53;;;;;;;5.60;4.10;;;;;;;15.52;51.00;102384.33;106739;1273;22533;-49
2023/05/12 03:51:20;;;;;;;6.00;4.10;;;;;;;15.51;51.05;102385.04;106372;1273;25284;-50
2023/05/12 03:53:50;;;;;;;4.50;3.80;;;;;;;15.49;51.07;102386.83;106686;1274;24284;-50
2023/05/12 03:56:18;;;;;;;3.90;3.60;;;;;;;15.44;51.08;102386.71;106444;1277;22996;-50
2023/05/12 03:58:46;;;;;;;4.70;3.40;;;;;;;15.38;50.99;102385.39;106725;1273;25460;-50
2023/05/12 04:01:14;;;;;;;4.80;3.30;;;;;;;15.35;51.17;102388.41;106662;1272;24497;-50
2023/05/12 04:03:42;;;;;;;4.60;3.80;;;;;;;15.33;51.16;102395.09;106676;1258;22538;-52
2023/05/12 04:06:09;;;;;;;5.00;3.80;;;;;;;15.30;51.43;102393.02;106705;1273;22536;-51
2023/05/12 04:08:36;;;;;;;5.50;3.90;;;;;;;15.27;51.59;102390.45;106651;1274;22629;-50
2023/05/12 04:11:08;;;;;;;5.80;4.40;;;;;;;15.28;51.62;102394.29;106361;1273;22531;-50
2023/05/12 04:13:35;;;;;;;5.80;3.80;;;;;;;15.29;51.77;102394.10;106795;1272;24256;-51
2023/05/12 04:16:03;;;;;;;6.10;3.30;;;;;;;15.31;51.97;102394.24;106548;1278;22526;-51
2023/05/12 04:18:30;;;;;;;4.90;3.80;;;;;;;15.35;51.71;102394.35;106771;1257;25715;-51
2023/05/12 04:20:58;;;;;;;5.00;4.00;;;;;;;15.38;51.77;102392.20;106427;1277;24228;-51
2023/05/12 04:23:25;;;;;;;3.80;3.50;;;;;;;15.42;51.76;102390.77;106774;1273;24474;-51
2023/05/12 04:25:53;;;;;;;5.40;3.90;;;;;;;15.44;51.75;102393.35;106002;1272;1003815;-51
2023/05/12 04:28:20;;;;;;;4.80;3.90;;;;;;;15.46;51.88;102395.42;106679;1273;22526;-51
2023/05/12 04:30:47;;;;;;;5.90;4.10;;;;;;;15.48;52.06;102395.23;106675;1274;22526;-51
2023/05/12 04:33:14;;;;;;;8.90;5.20;;;;;;;15.51;51.99;102396.05;106629;1273;22985;-51
2023/05/12 04:35:42;;;;;;;5.10;4.20;;;;;;;15.51;51.87;102389.23;106584;1275;24316;-51
2023/05/12 04:38:11;;;;;;;6.00;4.30;;;;;;;15.53;51.82;102393.21;106689;1272;22573;-51
2023/05/12 04:40:39;;;;;;;6.50;4.20;;;;;;;15.56;51.73;102397.02;106713;1257;25496;-51
2023/05/12 04:43:06;;;;;;;4.00;3.50;;;;;;;15.58;51.58;102401.36;106679;1272;22533;-51
2023/05/12 04:45:33;;;;;;;4.60;4.10;;;;;;;15.63;51.72;102401.29;106611;1275;22573;-52
2023/05/12 04:48:00;;;;;;;5.00;4.00;;;;;;;15.68;51.74;102401.73;106693;1274;24225;-50
2023/05/12 04:50:27;;;;;;;5.20;4.00;;;;;;;15.71;51.66;102398.01;106681;1273;22659;-50
2023/05/12 04:52:55;;;;;;;5.40;3.80;;;;;;;15.71;51.78;102399.73;106611;1273;24460;-50
2023/05/12 04:55:23;;;;;;;7.50;4.00;;;;;;;15.73;51.99;102398.48;106520;1275;25352;-50
2023/05/12 04:57:50;;;;;;;10.40;4.00;;;;;;;15.75;52.25;102402.83;106738;1272;24403;-51
2023/05/12 05:00:18;;;;;;;5.50;3.90;;;;;;;15.79;52.22;102408.88;106732;1272;26137;-50
2023/05/12 05:02:46;;;;;;;7.90;4.40;;;;;;;15.83;52.14;102407.94;106654;1273;25409;-51
2023/05/12 05:05:14;;;;;;;6.30;4.10;;;;;;;15.86;52.13;102398.78;106388;1275;25466;-51
2023/05/12 05:07:41;;;;;;;7.20;4.10;;;;;;;15.89;52.28;102399.27;106389;1275;22536;-50
2023/05/12 05:10:08;;;;;;;5.50;3.90;;;;;;;15.91;52.45;102397.45;106374;1273;25196;-51
2023/05/12 05:12:37;;;;;;;5.40;4.10;;;;;;;15.93;52.56;102400.23;106311;1281;23149;-50
2023/05/12 05:15:05;;;;;;;4.40;4.00;;;;;;;16.06;52.51;102399.64;106598;1273;24409;-50
2023/05/12 05:17:32;;;;;;;5.80;3.70;;;;;;;16.16;52.53;102400.68;106250;1273;22695;-50
2023/05/12 05:19:59;;;;;;;6.00;4.00;;;;;;;16.25;52.16;102406.98;106283;1275;24366;-51
2023/05/12 05:22:29;;;;;;;6.10;4.30;;;;;;;16.35;52.05;102403.98;106435;1275;24284;-51
2023/05/12 05:24:56;;;;;;;6.40;4.10;;;;;;;16.50;52.01;102408.44;106413;1276;22605;-51
2023/05/12 05:27:24;;;;;;;5.40;3.80;;;;;;;16.78;51.39;102408.92;106654;1273;25472;-51
2023/05/12 05:29:51;;;;;;;4.90;3.60;;;;;;;17.18;50.43;102413.64;106520;1275;22526;-51
2023/05/12 05:32:18;;;;;;;5.40;3.90;;;;;;;17.60;49.43;102414.24;106369;1275;25287;-51
2023/05/12 05:34:46;;;;;;;6.50;3.90;;;;;;;18.03;48.54;102413.33;106821;1272;22552;-51
2023/05/12 05:37:13;;;;;;;5.20;4.20;;;;;;;18.44;47.60;102406.25;106712;1273;22615;-51
2023/05/12 05:39:40;;;;;;;4.10;3.50;;;;;;;18.80;46.53;102407.48;106326;1280;22530;-51
2023/05/12 05:42:07;;;;;;;5.70;3.90;;;;;;;19.18;45.78;102403.14;106626;1273;22520;-51
2023/05/12 05:44:34;;;;;;;5.00;4.10;;;;;;;19.58;44.97;102395.00;106623;1273;23874;-51
2023/05/12 05:47:03;;;;;;;6.20;5.00;;;;;;;19.99;44.15;102391.47;106579;1273;24255;-51
2023/05/12 05:49:31;;;;;;;5.40;3.50;;;;;;;20.39;43.22;102398.53;106356;1274;25495;-52
2023/05/12 05:51:59;;;;;;;4.80;3.90;;;;;;;20.75;42.48;102399.44;106297;1273;24304;-51
2023/05/12 05:54:27;;;;;;;4.20;3.80;;;;;;;21.13;41.69;102401.17;106131;1275;25616;-51
2023/05/12 05:56:54;;;;;;;6.00;3.80;;;;;;;21.43;40.89;102394.66;106303;1272;22526;-51
2023/05/12 05:59:21;;;;;;;7.00;3.50;;;;;;;21.69;40.19;102396.73;105968;1273;22535;-51
2023/05/12 06:01:48;;;;;;;4.30;2.60;;;;;;;21.91;38.39;102395.63;106343;1273;22526;-51
2023/05/12 06:04:15;;;;;;;3.20;2.50;;;;;;;22.10;37.20;102384.58;105491;1271;1003084;-52
2023/05/12 06:06:43;;;;;;;4.10;2.20;;;;;;;22.26;36.78;102387.38;106160;1273;22763;-51
2023/05/12 06:09:11;;;;;;;4.00;2.10;;;;;;;22.37;35.86;102390.06;106256;1272;25239;-51
2023/05/12 06:11:38;;;;;;;2.70;1.90;;;;;;;22.42;35.36;102390.70;106180;1275;24268;-51
2023/05/12 06:14:05;;;;;;;3.00;1.70;;;;;;;22.47;34.82;102391.36;106172;1279;24291;-51
2023/05/12 06:16:32;;;;;;;2.20;1.80;;;;;;;22.52;33.18;102392.56;106163;1277;22584;-51
2023/05/12 06:19:00;;;;;;;3.10;1.90;;;;;;;22.52;33.17;102392.91;106395;1272;24405;-51
2023/05/12 06:21:27;;;;;;;2.40;1.90;;;;;;;22.52;33.38;102390.41;106409;1272;22543;-51
2023/05/12 06:23:55;;;;;;;7.20;3.20;;;;;;;22.46;33.76;102390.17;106431;1276;22549;-51
2023/05/12 06:26:22;;;;;;;5.50;2.30;;;;;;;22.32;34.10;102392.38;106715;1273;24381;-51
2023/05/12 06:28:50;;;;;;;4.30;2.70;;;;;;;22.23;34.82;102391.91;106398;1273;22527;-51
2023/05/12 06:31:17;;;;;;;4.70;1.90;;;;;;;22.24;35.13;102388.51;106365;1275;22636;-51
2023/05/12 06:33:45;;;;;;;2.40;2.20;;;;;;;22.26;35.21;102385.42;106768;1273;22800;-51
2023/05/12 06:36:13;;;;;;;1.60;1.50;;;;;;;22.22;35.00;102391.98;106713;1272;22527;-51
2023/05/12 06:38:40;;;;;;;2.30;2.00;;;;;;;22.08;35.35;102392.25;106739;1269;22516;-51
2023/05/12 06:41:07;;;;;;;2.20;2.00;;;;;;;21.93;35.60;102392.36;106088;1263;1002842;-51
2023/05/12 06:43:34;;;;;;;3.20;2.40;;;;;;;21.84;35.74;102398.95;106824;1273;22550;-51
2023/05/12 06:46:02;;;;;;;4.10;2.00;;;;;;;21.77;36.32;102405.77;106953;1263;24276;-51
2023/05/12 06:48:29;;;;;;;2.50;1.80;;;;;;;21.87;36.74;102400.41;106900;1269;22520;-51
2023/05/12 06:50:57;;;;;;;3.60;2.00;;;;;;;22.07;36.72;102399.54;106846;1271;22537;-51
2023/05/12 06:53:28;;;;;;;3.80;2.10;;;;;;;22.26;36.63;102404.02;106873;1272;24310;-51
2023/05/12 06:55:55;;;;;;;3.50;2.50;;;;;;;22.33;36.37;102406.83;106814;1269;22627;-51
2023/05/12 06:58:22;;;;;;;3.70;2.00;;;;;;;22.43;36.62;102411.00;106889;1269;24445;-51
2023/05/12 07:00:49;;;;;;;3.70;2.10;;;;;;;22.51;36.66;102412.94;106798;1270;22633;-51
2023/05/12 07:03:17;;;;;;;3.60;2.00;;;;;;;22.57;36.56;102415.51;107038;1256;24278;-51
2023/05/12 07:05:44;;;;;;;2.50;1.90;;;;;;;22.66;36.33;102416.16;106856;1268;22544;-51
2023/05/12 07:08:11;;;;;;;3.30;2.00;;;;;;;22.73;36.27;102413.75;106838;1269;25478;-51
2023/05/12 07:10:38;;;;;;;3.50;2.10;;;;;;;22.78;36.52;102418.45;106793;1270;25485;-52
2023/05/12 07:13:06;;;;;;;5.10;1.90;;;;;;;22.84;36.27;102416.05;105430;1268;1003775;-51
2023/05/12 07:15:33;;;;;;;3.60;2.00;;;;;;;22.87;36.52;102419.77;106810;1269;25501;-51
2023/05/12 07:18:01;;;;;;;5.30;2.00;;;;;;;22.97;36.15;102426.05;106890;1269;22788;-51
2023/05/12 07:20:28;;;;;;;5.50;2.20;;;;;;;22.97;36.49;102426.23;106838;1269;25405;-51
2023/05/12 07:22:55;;;;;;;3.50;1.90;;;;;;;23.02;36.34;102424.22;106813;1269;24948;-51
2023/05/12 07:25:22;;;;;;;2.60;2.00;;;;;;;23.06;36.45;102426.86;106821;1260;24313;-50
2023/05/12 07:27:49;;;;;;;4.10;2.30;;;;;;;23.13;36.65;102425.25;106866;1269;22514;-51
2023/05/12 07:30:17;;;;;;;6.20;2.30;;;;;;;23.28;36.64;102427.05;106801;1272;24261;-50
2023/05/12 07:32:44;;;;;;;3.20;2.30;;;;;;;23.35;36.56;102431.51;106855;1269;24275;-50
2023/05/12 07:35:11;;;;;;;2.70;1.80;;;;;;;23.28;36.82;102426.47;106823;1269;22555;-51
2023/05/12 07:37:40;;;;;;;3.60;1.90;;;;;;;23.27;36.55;102427.27;106743;1257;25543;-51
2023/05/12 07:40:07;;;;;;;2.60;1.70;;;;;;;23.21;36.12;102426.49;106714;1269;26347;-51
2023/05/12 07:42:34;;;;;;;3.20;1.70;;;;;;;23.02;36.40;102425.64;106735;1276;25344;-51
2023/05/12 07:45:01;;;;;;;2.90;2.10;;;;;;;22.84;37.18;102417.98;106793;1269;24272;-51
2023/05/12 07:47:28;;;;;;;4.20;1.70;;;;;;;22.73;36.91;102424.37;107571;1267;22549;-51
2023/05/12 07:49:56;;;;;;;1.90;1.60;;;;;;;22.60;36.81;102420.85;106935;1263;25303;-51
2023/05/12 07:52:23;;;;;;;3.30;2.00;;;;;;;22.46;37.18;102421.27;106789;1266;22589;-51
2023/05/12 07:54:50;;;;;;;3.50;1.80;;;;;;;22.22;37.42;102421.85;106956;1266;24245;-52
2023/05/12 07:57:17;;;;;;;4.70;2.00;;;;;;;22.02;37.61;102422.19;106838;1272;22548;-51
2023/05/12 07:59:44;;;;;;;2.40;1.80;;;;;;;21.92;37.92;102418.05;107066;1260;24272;-52
2023/05/12 08:02:11;;;;;;;1.70;1.60;;;;;;;21.81;38.07;102424.30;107064;1263;22530;-52
2023/05/12 08:04:39;;;;;;;2.90;1.90;;;;;;;21.71;37.92;102427.20;107091;1272;22563;-51
2023/05/12 08:07:08;;;;;;;3.20;1.80;;;;;;;21.60;38.24;102424.66;106843;1266;22524;-52
2023/05/12 08:09:35;;;;;;;3.60;1.70;;;;;;;21.48;38.46;102418.82;106770;1269;24410;-50
2023/05/12 08:12:04;;;;;;;1.90;1.70;;;;;;;21.38;37.64;102413.22;106972;1259;24858;-51
2023/05/12 08:14:31;;;;;;;2.20;1.60;;;;;;;21.27;37.45;102414.59;106905;1270;22631;-50
2023/05/12 08:16:58;;;;;;;3.60;1.80;;;;;;;21.15;38.16;102416.27;106699;1272;24246;-50
2023/05/12 08:19:25;;;;;;;2.10;1.80;;;;;;;21.03;38.45;102412.85;106775;1269;22642;-51
2023/05/12 08:21:52;;;;;;;3.10;2.00;;;;;;;20.92;38.64;102415.38;106846;1269;25482;-52
2023/05/12 08:24:20;;;;;;;4.20;2.00;;;;;;;20.85;38.97;102414.75;106877;1275;24282;-51
2023/05/12 08:26:47;;;;;;;2.70;1.90;;;;;;;20.81;39.21;102416.14;106796;1272;22527;-51
2023/05/12 08:29:15;;;;;;;2.40;1.90;;;;;;;20.82;39.02;102411.52;106904;1273;22516;-51
2023/05/12 08:31:42;;;;;;;2.40;2.00;;;;;;;20.87;39.15;102409.59;106919;1269;22529;-51
2023/05/12 08:34:10;;;;;;;1.90;1.70;;;;;;;20.86;39.14;102408.71;106785;1270;22541;-52
2023/05/12 08:36:38;;;;;;;3.20;2.00;;;;;;;20.86;38.44;102409.59;106652;1276;22513;-51
2023/05/12 08:39:07;;;;;;;4.90;1.80;;;;;;;20.84;38.29;102408.81;106731;1276;25303;-51
2023/05/12 08:41:45;;;;;;;2.00;1.80;;;;;;;20.82;38.31;102411.69;107049;1276;25294;-51
2023/05/12 08:44:12;;;;;;;2.90;1.70;;;;;;;20.88;38.69;102412.71;106786;1272;24243;-51
2023/05/12 08:46:40;;;;;;;4.00;1.90;;;;;;;20.96;38.72;102414.85;106740;1272;22520;-53
2023/05/12 08:49:15;;;;;;;2.00;1.80;;;;;;;21.00;38.98;102412.58;106890;1270;24216;-51
2023/05/12 08:51:46;;;;;;;1.90;1.70;;;;;;;20.95;38.83;102413.50;106409;1270;22532;-52
2023/05/12 08:54:23;;;;;;;2.20;1.70;;;;;;;20.90;38.93;102415.80;106729;1270;22533;-51
2023/05/12 08:56:50;;;;;;;3.30;1.80;;;;;;;20.86;38.78;102411.91;106582;1269;24332;-51
2023/05/12 08:59:20;;;;;;;1.80;1.60;;;;;;;20.80;39.22;102405.95;106986;1272;22526;-51
2023/05/12 09:01:47;;;;;;;2.10;1.60;;;;;;;20.79;39.52;102407.92;106742;1270;22523;-51
2023/05/12 09:04:14;;;;;;;3.10;1.90;;;;;;;20.77;39.11;102407.48;107015;1269;25337;-51
2023/05/12 09:06:42;;;;;;;2.30;1.70;;;;;;;20.76;39.61;102409.27;106759;1269;22524;-51
2023/05/12 09:09:10;;;;;;;3.90;2.00;;;;;;;20.82;38.96;102408.70;106547;1274;24371;-52
2023/05/12 09:11:37;;;;;;;3.90;1.90;;;;;;;20.87;38.57;102410.64;106739;1273;22673;-51
2023/05/12 09:14:09;;;;;;;2.40;1.70;;;;;;;20.89;39.24;102413.17;106879;1271;24257;-51
2023/05/12 09:18:05;;;;;;;3.10;1.60;;;;;;;20.54;40.45;102411.33;104591;1295;560680;-50
2023/05/12 09:20:33;;;;;;;1.70;1.60;;;;;;;21.10;39.04;102411.89;106421;1280;23418;-51
2023/05/12 09:23:21;;;;;;;2.80;1.70;;;;;;;21.27;38.49;102412.95;106304;1282;22539;-52
2023/05/12 09:25:59;;;;;;;2.40;1.80;;;;;;;21.44;37.52;102410.15;104049;1280;1004091;-52
2023/05/12 09:28:36;;;;;;;4.20;1.80;;;;;;;21.58;36.84;102412.76;105710;1285;25373;-51
2023/05/12 09:31:33;;;;;;;2.60;1.60;;;;;;;21.66;35.14;102410.45;105705;1284;228080;-51
2023/05/12 09:34:01;;;;;;;2.80;2.10;;;;;;;21.65;35.32;102414.02;105539;1271;25478;-50
2023/05/12 09:36:28;;;;;;;2.80;2.10;;;;;;;21.63;35.74;102414.48;105546;1288;25389;-51
2023/05/12 09:38:59;;;;;;;2.40;1.80;;;;;;;21.59;35.85;102415.16;105719;1287;25383;-50
2023/05/12 09:41:26;;;;;;;2.60;1.40;;;;;;;21.60;36.03;102414.06;105847;1285;25422;-50
2023/05/12 09:43:53;;;;;;;2.80;1.80;;;;;;;21.66;35.78;102409.60;105560;1285;25428;-50
2023/05/12 09:46:20;;;;;;;2.40;1.50;;;;;;;21.69;36.06;102406.99;105770;1286;25559;-51
2023/05/12 09:48:48;;;;;;;5.10;1.60;;;;;;;21.73;35.22;102407.71;105736;1285;25903;-51
2023/05/12 09:51:17;;;;;;;1.70;1.40;;;;;;;21.80;34.85;102410.21;105718;1285;25499;-50
2023/05/12 09:53:45;;;;;;;3.60;1.80;;;;;;;21.85;34.40;102405.29;105431;1285;24264;-51
2023/05/12 09:56:13;;;;;;;1.30;1.20;;;;;;;21.88;34.49;102405.83;105734;1286;25501;-50
2023/05/12 09:58:45;;;;;;;2.00;1.40;;;;;;;21.92;34.28;102406.55;105714;1285;25499;-51
2023/05/12 10:01:17;;;;;;;1.90;1.40;;;;;;;21.95;33.93;102409.24;105715;1286;24216;-50
2023/05/12 10:03:52;;;;;;;3.90;1.60;;;;;;;21.95;33.75;102409.44;105708;1286;25365;-51
2023/05/12 10:06:28;;;;;;;1.60;1.40;;;;;;;21.99;33.85;102405.56;105818;1287;25304;-50
2023/05/12 10:09:02;;;;;;;1.70;1.40;;;;;;;22.02;33.49;102406.10;105732;1286;25507;-51
2023/05/12 10:11:29;;;;;;;2.30;1.30;;;;;;;22.05;33.51;102409.88;105909;1285;22898;-51
2023/05/12 10:13:58;;;;;;;1.50;1.40;;;;;;;22.09;33.02;102410.59;106207;1279;25344;-51
2023/05/12 10:16:27;;;;;;;2.90;1.30;;;;;;;22.09;33.24;102407.20;106121;1282;23008;-50
2023/05/12 10:18:59;;;;;;;2.20;1.50;;;;;;;22.05;33.08;102406.15;106305;1279;25414;-51
2023/05/12 10:21:26;;;;;;;6.10;1.80;;;;;;;21.98;33.62;102406.64;106075;1284;25375;-50
2023/05/12 10:23:54;;;;;;;2.30;1.60;;;;;;;21.93;33.84;102405.45;106244;1279;25500;-50
2023/05/12 10:26:22;;;;;;;3.90;1.40;;;;;;;21.90;33.27;102401.87;106101;1280;24209;-51
2023/05/12 10:28:49;;;;;;;3.60;1.40;;;;;;;21.93;32.49;102403.17;106057;1280;25490;-51
2023/05/12 10:31:16;;;;;;;2.10;1.50;;;;;;;22.00;31.87;102404.45;106948;1269;25335;-50
2023/05/12 10:33:54;;;;;;;3.70;1.60;;;;;;;22.05;31.99;102400.84;106828;1269;23247;-51
2023/05/12 10:36:21;;;;;;;1.80;1.70;;;;;;;22.08;32.01;102396.65;106996;1270;25409;-51
2023/05/12 10:38:49;;;;;;;2.60;1.70;;;;;;;22.07;32.89;102398.28;105312;1273;1003816;-51
2023/05/12 10:41:16;;;;;;;2.20;1.80;;;;;;;22.04;33.16;102396.13;107048;1270;25469;-51
2023/05/12 10:43:47;;;;;;;2.00;1.70;;;;;;;22.06;33.30;102394.27;107068;1270;25430;-50
2023/05/12 10:46:15;;;;;;;;;;;;;;;22.08;33.33;102393.31;106832;1267;25413;-51
2023/05/12 10:49:07;;;;;;;2.40;1.80;;;;;;;22.04;32.95;102392.23;107126;1266;22643;-50
2023/05/12 10:51:43;;;;;;;3.10;1.90;;;;;;;21.96;32.53;102392.97;106735;1275;25356;-50
2023/05/12 10:54:17;;;;;;;3.40;2.40;;;;;;;21.95;33.37;102392.11;106325;1276;25612;-51
2023/05/12 10:56:44;;;;;;;3.40;2.00;;;;;;;22.02;33.71;102386.16;106719;1275;25415;-51
2023/05/12 10:59:18;;;;;;;2.80;2.00;;;;;;;22.08;33.44;102385.16;106380;1259;25376;-51
2023/05/12 11:02:15;;;;;;;2.20;2.00;;;;;;;22.12;33.32;102384.99;105215;1273;1003769;-51
2023/05/12 11:05:07;;;;;;;2.80;2.10;;;;;;;22.13;33.58;102384.95;106618;1275;24211;-51
2023/05/12 11:07:35;;;;;;;;;;;;;;;22.14;33.51;102383.83;106665;1275;25501;-50
2023/05/12 11:10:04;;;;;;;3.80;2.10;;;;;;;22.20;33.55;102377.94;106648;1278;23004;-50
2023/05/12 11:12:36;;;;;;;3.50;2.10;;;;;;;22.29;33.32;102376.10;106676;1274;22523;-51
2023/05/12 11:15:04;;;;;;;2.40;2.20;;;;;;;22.39;31.61;102372.08;106732;1275;25373;-51
2023/05/12 11:17:31;;;;;;;2.30;1.90;;;;;;;22.49;30.07;102372.71;106683;1274;22543;-51
2023/05/12 11:20:00;;;;;;;3.50;2.70;;;;;;;22.57;29.71;102370.21;106319;1281;22536;-51
2023/05/12 11:22:28;;;;;;;4.40;2.80;;;;;;;22.65;30.01;102367.58;106660;1274;25590;-51
2023/05/12 11:24:55;;;;;;;2.50;2.10;;;;;;;22.75;29.52;102365.36;106629;1274;25366;-51
2023/05/12 11:27:22;;;;;;;2.30;2.00;;;;;;;22.85;28.34;102362.36;106690;1275;25502;-51